Mill Spring, North Carolina
Current Conditions -  °F | °C
As of 7:55 PM on Tuesday 21 Oct 2014 (Local Time) from KFQD Reporting Station
Clear Clear  
Wind Chill: 59°   Ceiling: Unl
Heat Index: 59°   Visibility: 10mi
Dew Point: 40°   Wind: 3mph
Humidity: 50%   Direction: 320°NW
Pressure: 29.97"   Gusts: NA
Location:  35.3°N, 82.16°W
Report Text: KFQD 212355Z AUTO 32003KT 10SM CLR 15/05 A2997 RMK AO2 T01510046 10227 20147
Loading
Personal Weather Stations






























Interactive Weather Map
Tropical Storm Tracking
New forecast layout! Learn more

10-Day Weather Forecast

Advertisements
Track Severe Weather on mobile